»·PEaware :: N1127N KSNA-KAVX

N1127N :: KSNA-KAVX

FLIGHT INFORMATION

Flight Status: Arrived
Operator: Privately registered:
United States
More flights under this callsign
Pilot: Alexander M. (19327)
Aircraft: CESSNA 550 CITATION 2/S2/BRAVO
(C550)
More flights by this aircraft type
Origin: KSNA John Wayne-Orange Co
United States
Destination: KAVX Catalina
United States
More flights between these airports :: More routes between these airports
Route: +SXC
File this flight plan on PilotEdge
Remarks: Pilotedge I-07 Rating...on stream! twitch.tv / allaboutflight
Altitude:
(Current/Filed)
6,000ft
Speed:
(Current/Filed)
220kts
Departed: 01-Nov-18 06:17 PM
Arrived: 01-Nov-18 08:00 PM
Distance/Time
Traveled:
31nm/1:42
Distance/Time
To Go:
Arrived

Flight Plot

Page will automatically refresh every two minutes.


Map Options




Map Legend


Flown Route
Filed Route
Departure Airport
Arrival Airport
Navaid (VOR, NDB)
Fix

Horizontal Profiles

Position Reports

Time Latitude Longitude Heading Altitude Ground
Speed
01-Nov-18 18:05 33.673825 -117.872229 118 61ft 0kts
01-Nov-18 18:06 33.673825 -117.872229 118 61ft 0kts
01-Nov-18 18:07 33.673825 -117.872229 118 61ft 0kts
01-Nov-18 18:08 33.673825 -117.872229 118 61ft 0kts
01-Nov-18 18:09 33.673825 -117.872229 118 61ft 0kts
01-Nov-18 18:10 33.673825 -117.872229 118 61ft 0kts
01-Nov-18 18:11 33.673825 -117.872229 118 61ft 0kts
01-Nov-18 18:12 33.673825 -117.872229 118 61ft 0kts
01-Nov-18 18:13 33.673825 -117.872229 118 61ft 0kts
01-Nov-18 18:14 33.673818 -117.872214 118 61ft 1kts
01-Nov-18 18:15 33.675081 -117.870719 27 61ft 21kts
01-Nov-18 18:16 33.679968 -117.867802 27 61ft 16kts
01-Nov-18 18:17 33.681934 -117.866049 101 61ft 0kts
01-Nov-18 18:18 33.681812 -117.865716 119 61ft 8kts
01-Nov-18 18:19 33.667066 -117.874471 211 632ft 150kts
01-Nov-18 18:20 33.619259 -117.888833 182 2255ft 216kts
01-Nov-18 18:21 33.556094 -117.892859 187 3044ft 230kts
01-Nov-18 18:22 33.493305 -117.908017 206 3077ft 238kts
01-Nov-18 18:23 33.446249 -117.954050 220 3858ft 208kts
01-Nov-18 18:24 33.404132 -117.998248 221 4640ft 195kts
01-Nov-18 18:25 33.361264 -118.043103 221 5449ft 219kts
01-Nov-18 18:26 33.312757 -118.093803 221 5910ft 248kts
01-Nov-18 18:27 33.296683 -118.160887 324 5912ft 235kts
01-Nov-18 18:28 33.345276 -118.197127 307 6079ft 178kts
01-Nov-18 18:29 33.348796 -118.251788 266 5785ft 157kts
01-Nov-18 18:30 33.354345 -118.304842 279 5229ft 162kts
01-Nov-18 18:31 33.359494 -118.357594 270 4520ft 156kts
01-Nov-18 18:32 33.336256 -118.353414 79 5217ft 136kts
01-Nov-18 18:33 33.372603 -118.343742 359 5174ft 160kts
01-Nov-18 18:34 33.415835 -118.352715 305 4449ft 160kts
01-Nov-18 18:35 33.394561 -118.376724 162 4233ft 150kts
01-Nov-18 18:36 33.361735 -118.385429 274 3992ft 138kts
01-Nov-18 18:37 33.387536 -118.419378 13 4160ft 135kts
01-Nov-18 18:38 33.422192 -118.424158 317 3603ft 141kts
01-Nov-18 18:39 33.449773 -118.460185 313 3052ft 147kts
01-Nov-18 18:40 33.478034 -118.500928 315 3882ft 165kts
01-Nov-18 18:41 33.515753 -118.544002 321 6258ft 200kts
01-Nov-18 18:42 33.560280 -118.584940 324 8771ft 212kts
01-Nov-18 18:43 33.609213 -118.627189 327 10877ft 213kts
01-Nov-18 18:44 33.656418 -118.665959 327 11800ft 212kts
01-Nov-18 18:45 33.711129 -118.681880 21 12002ft 224kts
01-Nov-18 18:46 33.740649 -118.629173 92 12540ft 232kts
01-Nov-18 18:47 33.732218 -118.558160 102 13259ft 214kts
01-Nov-18 19:09 33.673161 -117.872609 328 61ft 0kts
01-Nov-18 19:10 33.673161 -117.872609 328 61ft 0kts
01-Nov-18 19:11 33.673161 -117.872609 328 61ft 0kts
01-Nov-18 19:12 33.673161 -117.872609 328 61ft 0kts
01-Nov-18 19:13 33.673161 -117.872609 328 61ft 0kts
01-Nov-18 19:14 33.673161 -117.872609 328 61ft 0kts
01-Nov-18 19:15 33.673162 -117.872609 328 61ft 0kts
01-Nov-18 19:16 33.673162 -117.872609 328 61ft 0kts
01-Nov-18 19:17 33.673162 -117.872609 328 61ft 0kts
01-Nov-18 19:18 33.673167 -117.872613 329 61ft 0kts
01-Nov-18 19:19 33.675787 -117.870261 26 61ft 13kts
01-Nov-18 19:20 33.678289 -117.868683 29 61ft 16kts
01-Nov-18 19:21 33.681953 -117.866115 96 61ft 5kts
01-Nov-18 19:22 33.680647 -117.865709 207 61ft 52kts
01-Nov-18 19:23 33.640063 -117.884134 189 1675ft 215kts
01-Nov-18 19:24 33.582545 -117.890835 180 3356ft 199kts
01-Nov-18 19:25 33.524864 -117.898698 186 4372ft 216kts
01-Nov-18 19:26 33.467353 -117.907584 186 5321ft 205kts
01-Nov-18 19:27 33.410717 -117.910200 176 5897ft 214kts
01-Nov-18 19:28 33.360820 -117.947330 245 5897ft 214kts
01-Nov-18 19:29 33.366009 -118.008628 296 5898ft 178kts
01-Nov-18 19:30 33.385643 -118.059965 296 5898ft 163kts
01-Nov-18 19:31 33.391135 -118.112073 269 5899ft 159kts
01-Nov-18 19:32 33.388440 -118.165832 268 5902ft 174kts
01-Nov-18 19:33 33.385377 -118.225977 268 5901ft 186kts
01-Nov-18 19:34 33.382100 -118.288498 267 5900ft 191kts
01-Nov-18 19:35 33.378947 -118.347340 269 5298ft 171kts
01-Nov-18 19:36 33.376306 -118.402998 277 4303ft 166kts
01-Nov-18 19:37 33.404929 -118.432140 11 3354ft 140kts
01-Nov-18 19:38 33.436537 -118.417520 17 3303ft 125kts
01-Nov-18 19:39 33.457734 -118.388765 105 3297ft 137kts
01-Nov-18 19:40 33.424956 -118.391902 215 3299ft 146kts
01-Nov-18 19:41 33.386189 -118.409625 197 3304ft 162kts
01-Nov-18 19:42 33.346003 -118.430491 206 3295ft 138kts
01-Nov-18 19:43 33.318697 -118.452653 267 3293ft 107kts
01-Nov-18 19:44 33.349457 -118.460036 22 3315ft 218kts
01-Nov-18 19:45 33.386184 -118.416608 30 3285ft 148kts
01-Nov-18 19:46 33.423214 -118.412566 10 3297ft 124kts
01-Nov-18 19:47 33.456421 -118.406095 11 3301ft 118kts
01-Nov-18 19:48 33.487572 -118.399427 12 3307ft 118kts
01-Nov-18 19:49 33.515386 -118.409730 315 3296ft 114kts
01-Nov-18 19:50 33.536452 -118.436651 317 3297ft 109kts
01-Nov-18 19:51 33.551201 -118.425375 120 3301ft 110kts
01-Nov-18 19:52 33.526952 -118.401034 156 3316ft 115kts
01-Nov-18 19:53 33.494163 -118.402610 178 3317ft 122kts
01-Nov-18 19:54 33.461885 -118.404794 183 2909ft 113kts
01-Nov-18 19:55 33.430004 -118.403785 169 2579ft 109kts
01-Nov-18 19:56 33.405684 -118.414532 236 1601ft 120kts
01-Nov-18 19:57 33.376937 -118.461451 231 3397ft 163kts
01-Nov-18 19:58 33.371935 -118.508405 317 4087ft 165kts
01-Nov-18 19:59 33.409595 -118.500216 32 3482ft 162kts
01-Nov-18 20:00 33.440794 -118.465187 69 2887ft 139kts
01-Nov-18 20:01 33.449682 -118.418942 91 3134ft 150kts
01-Nov-18 20:02 33.419115 -118.391639 187 2961ft 124kts
01-Nov-18 20:03 33.402859 -118.419307 238 1571ft 18kts
01-Nov-18 20:04 33.402821 -118.418731 55 1571ft 11kts
01-Nov-18 20:05 33.403398 -118.415878 93 1571ft 4kts
01-Nov-18 20:06 33.403280 -118.415382 50 1571ft 0kts
01-Nov-18 20:07 33.403280 -118.415382 50 1571ft 0kts
01-Nov-18 20:08 33.403280 -118.415382 50 1571ft 0kts
01-Nov-18 20:09 33.403280 -118.415382 50 1571ft 0kts
01-Nov-18 20:10 33.403280 -118.415382 50 1571ft 0kts
01-Nov-18 20:11 33.403280 -118.415382 50 1571ft 0kts
01-Nov-18 20:11 33.410171 -118.499782 32 3419ft 165kts
01-Nov-18 20:13 33.443166 -118.457037 70 2842ft 144kts
01-Nov-18 20:13 33.449645 -118.418284 92 3136ft 151kts

Navigation Log

Ident Type
1. KSNA Airport
2. SXC Navaid
3. KAVX Airport